createdAt,value
2018-12-16T00:00:45.436Z,39.43
2018-12-16T00:03:16.164Z,55.37
2018-12-16T00:05:46.903Z,59.33
2018-12-16T00:08:15.690Z,50.47
2018-12-16T00:10:44.490Z,61.20
2018-12-16T00:13:13.352Z,51.43
2018-12-16T00:15:42.132Z,68.60
2018-12-16T00:18:12.439Z,55.57
2018-12-16T00:20:41.281Z,67.70
2018-12-16T00:23:10.046Z,54.33
2018-12-16T00:25:38.815Z,55.43
2018-12-16T00:28:07.661Z,55.40
2018-12-16T00:30:36.629Z,58.53
2018-12-16T00:33:05.469Z,59.73
2018-12-16T00:35:34.324Z,61.60
2018-12-16T00:38:03.082Z,64.33
2018-12-16T00:40:31.877Z,53.83
2018-12-16T00:43:00.683Z,59.87
2018-12-16T00:45:29.448Z,61.10
2018-12-16T00:47:58.518Z,55.67
2018-12-16T00:50:27.985Z,63.27
2018-12-16T00:52:57.027Z,60.33
2018-12-16T00:55:26.055Z,50.47
2018-12-16T00:57:55.682Z,51.30
2018-12-16T01:00:24.530Z,59.80
2018-12-16T01:02:53.388Z,47.10
2018-12-16T01:05:22.215Z,60.30
2018-12-16T01:07:50.982Z,72.50
2018-12-16T01:10:19.782Z,62.03
2018-12-16T01:12:48.635Z,75.33
2018-12-16T01:15:17.431Z,62.20
2018-12-16T01:17:46.296Z,58.50
2018-12-16T01:20:15.114Z,53.83
2018-12-16T01:22:43.895Z,70.10
2018-12-16T01:25:12.708Z,65.53
2018-12-16T01:27:41.536Z,66.40
2018-12-16T01:30:10.470Z,66.77
2018-12-16T01:32:39.265Z,67.23
2018-12-16T01:35:09.212Z,63.03
2018-12-16T01:37:38.404Z,65.83
2018-12-16T01:40:08.189Z,70.03
2018-12-16T01:42:37.262Z,77.87
2018-12-16T01:45:06.510Z,67.67
2018-12-16T01:47:35.427Z,73.93
2018-12-16T01:50:04.526Z,57.27
2018-12-16T01:52:33.373Z,72.47
2018-12-16T01:55:02.326Z,69.00
2018-12-16T01:57:31.282Z,74.00
2018-12-16T02:00:00.144Z,70.20
2018-12-16T02:02:28.977Z,80.90
2018-12-16T02:04:58.056Z,73.87
2018-12-16T02:07:27.260Z,70.00
2018-12-16T02:09:56.543Z,54.97
2018-12-16T02:12:25.417Z,76.87
2018-12-16T02:14:54.722Z,63.23
2018-12-16T02:17:23.605Z,71.80
2018-12-16T02:19:52.575Z,81.07
2018-12-16T02:22:22.054Z,69.13
2018-12-16T02:24:51.100Z,80.60
2018-12-16T02:27:20.132Z,65.20
2018-12-16T02:29:49.027Z,66.00
2018-12-16T02:32:19.976Z,70.40
2018-12-16T02:34:48.856Z,65.97
2018-12-16T02:37:17.984Z,72.17
2018-12-16T02:39:46.846Z,68.57
2018-12-16T02:42:15.699Z,78.90
2018-12-16T02:44:44.633Z,60.07
2018-12-16T02:47:13.814Z,60.67
2018-12-16T02:49:42.785Z,65.60
2018-12-16T02:52:12.777Z,67.60
2018-12-16T02:54:41.696Z,75.10
2018-12-16T02:57:10.663Z,62.27
2018-12-16T02:59:39.542Z,73.03
2018-12-16T03:02:08.408Z,66.37
2018-12-16T03:04:37.306Z,81.00
2018-12-16T03:07:06.464Z,67.33
2018-12-16T03:09:35.386Z,65.40
2018-12-16T03:12:04.436Z,78.40
2018-12-16T03:14:33.364Z,63.73
2018-12-16T03:17:02.932Z,61.53
2018-12-16T03:19:31.771Z,66.03
2018-12-16T03:22:00.706Z,67.57
2018-12-16T03:24:29.935Z,78.40
2018-12-16T03:26:58.796Z,82.03
2018-12-16T03:29:28.613Z,68.43
2018-12-16T03:31:58.262Z,68.20
2018-12-16T03:34:27.133Z,73.97
2018-12-16T03:36:56.006Z,75.77
2018-12-16T03:39:25.152Z,68.27
2018-12-16T03:41:55.168Z,71.00
2018-12-16T03:44:24.293Z,60.87
2018-12-16T03:46:53.956Z,59.03
2018-12-16T03:49:22.880Z,54.60
2018-12-16T03:51:52.042Z,68.47
2018-12-16T03:54:20.890Z,55.30
2018-12-16T03:56:49.795Z,74.27
2018-12-16T03:59:19.534Z,68.20
2018-12-16T04:01:53.859Z,71.87
2018-12-16T04:04:22.717Z,62.57
2018-12-16T04:06:51.837Z,67.33
2018-12-16T04:09:20.702Z,61.73
2018-12-16T04:11:49.621Z,70.37
2018-12-16T04:14:18.512Z,76.10
2018-12-16T04:16:49.359Z,59.27
2018-12-16T04:19:18.233Z,63.40
2018-12-16T04:21:47.117Z,66.63
2018-12-16T04:24:16.059Z,66.50
2018-12-16T04:26:44.954Z,63.70
2018-12-16T04:29:13.812Z,63.43
2018-12-16T04:31:43.720Z,65.17
2018-12-16T04:34:12.620Z,66.63
2018-12-16T04:36:41.469Z,60.80
2018-12-16T04:39:10.362Z,78.00
2018-12-16T04:41:39.689Z,69.63
2018-12-16T04:44:08.840Z,68.20
2018-12-16T04:46:37.710Z,66.57
2018-12-16T04:49:06.697Z,64.90
2018-12-16T04:51:37.055Z,67.43
2018-12-16T04:54:05.931Z,70.67
2018-12-16T04:56:35.049Z,63.30
2018-12-16T04:59:04.170Z,66.50
2018-12-16T05:01:33.431Z,59.20
2018-12-16T05:04:02.337Z,65.60
2018-12-16T05:06:31.692Z,61.57
2018-12-16T05:09:00.603Z,63.07
2018-12-16T05:11:29.496Z,61.93
2018-12-16T05:13:58.386Z,57.63
2018-12-16T05:16:28.769Z,68.27
2018-12-16T05:18:58.397Z,59.97
2018-12-16T05:21:27.540Z,64.37
2018-12-16T05:23:56.402Z,59.70
2018-12-16T05:26:25.270Z,71.40
2018-12-16T05:28:54.156Z,63.43
2018-12-16T05:31:23.017Z,60.53
2018-12-16T05:33:52.094Z,69.33
2018-12-16T05:36:21.110Z,64.53
2018-12-16T05:38:49.971Z,50.23
2018-12-16T05:41:19.888Z,71.57
2018-12-16T05:43:49.688Z,71.43
2018-12-16T05:46:18.559Z,62.90
2018-12-16T05:48:47.515Z,72.37
2018-12-16T05:51:16.369Z,61.13
2018-12-16T05:53:48.548Z,64.37
2018-12-16T05:56:16.306Z,74.17
2018-12-16T05:58:45.219Z,63.10
2018-12-16T06:01:14.124Z,64.50
2018-12-16T06:03:43.535Z,61.70
2018-12-16T06:06:13.801Z,63.37
2018-12-16T06:08:43.482Z,62.43
2018-12-16T06:11:12.883Z,73.53
2018-12-16T06:13:42.598Z,69.63
2018-12-16T06:16:11.856Z,70.53
2018-12-16T06:18:41.136Z,75.53
2018-12-16T06:21:10.198Z,74.40
2018-12-16T06:23:39.018Z,80.63
2018-12-16T06:26:07.932Z,83.17
2018-12-16T06:28:36.757Z,75.27
2018-12-16T06:31:05.574Z,83.33
2018-12-16T06:33:34.406Z,71.47
2018-12-16T06:36:03.675Z,69.17
2018-12-16T06:38:32.929Z,83.47
2018-12-16T06:41:01.755Z,82.63
2018-12-16T06:43:30.563Z,66.10
2018-12-16T06:46:00.343Z,83.43
2018-12-16T06:48:29.155Z,75.27
2018-12-16T06:50:57.976Z,80.55
2018-12-16T06:53:27.082Z,70.63
2018-12-16T06:55:55.874Z,68.07
2018-12-16T06:58:25.413Z,80.03
2018-12-16T07:00:55.878Z,85.73
2018-12-16T07:03:24.703Z,76.10
2018-12-16T07:05:53.551Z,85.30
2018-12-16T07:08:22.722Z,97.20
2018-12-16T07:10:51.570Z,97.33
2018-12-16T07:13:20.429Z,84.90
2018-12-16T07:15:50.273Z,94.67
2018-12-16T07:18:19.132Z,80.13
2018-12-16T07:20:47.940Z,83.33
2018-12-16T07:23:17.120Z,116.53
2018-12-16T07:25:47.054Z,81.03
2018-12-16T07:28:16.672Z,77.53
2018-12-16T07:30:46.594Z,85.00
2018-12-16T07:33:16.988Z,83.77
2018-12-16T07:35:46.083Z,84.67
2018-12-16T07:38:15.496Z,99.33
2018-12-16T07:40:44.891Z,92.50
2018-12-16T07:43:14.088Z,84.77
2018-12-16T07:45:43.806Z,93.90
2018-12-16T07:48:13.579Z,87.70
2018-12-16T07:50:44.804Z,101.43
2018-12-16T07:53:18.192Z,102.30
2018-12-16T07:55:47.858Z,104.40
2018-12-16T07:58:25.902Z,89.80
2018-12-16T08:00:54.772Z,95.23
2018-12-16T08:03:23.947Z,98.37
2018-12-16T08:05:53.540Z,109.87
2018-12-16T08:08:22.474Z,108.03
2018-12-16T08:10:51.308Z,104.27
2018-12-16T08:13:22.281Z,104.67
2018-12-16T08:15:52.011Z,108.80
2018-12-16T08:18:22.491Z,95.37
2018-12-16T08:20:53.006Z,111.27
2018-12-16T08:23:23.158Z,107.83
2018-12-16T08:25:56.031Z,115.40
2018-12-16T08:28:29.758Z,124.10
2018-12-16T08:31:01.956Z,107.63
2018-12-16T08:33:35.783Z,112.90
2018-12-16T08:36:07.090Z,115.60
2018-12-16T08:38:36.790Z,94.70
2018-12-16T08:41:07.487Z,102.33
2018-12-16T08:43:37.059Z,102.63
2018-12-16T08:46:06.605Z,97.67
2018-12-16T08:48:36.542Z,109.30
2018-12-16T08:51:06.487Z,112.63
2018-12-16T08:53:35.374Z,120.70
2018-12-16T08:56:05.594Z,110.40
2018-12-16T08:58:34.507Z,95.77
2018-12-16T09:01:05.363Z,110.27
2018-12-16T09:03:37.811Z,111.07
2018-12-16T09:06:08.725Z,98.13
2018-12-16T09:08:41.121Z,110.40
2018-12-16T09:11:12.746Z,116.97
2018-12-16T09:13:49.909Z,105.03
2018-12-16T09:16:30.530Z,108.50
2018-12-16T09:19:02.802Z,105.53
2018-12-16T09:21:37.058Z,117.63
2018-12-16T09:26:59.397Z,111.63
2018-12-16T09:29:39.169Z,123.93
2018-12-16T09:35:00.139Z,101.97
2018-12-16T09:37:35.278Z,127.37
2018-12-16T09:40:10.335Z,130.60
2018-12-16T09:42:40.726Z,115.77
2018-12-16T09:45:10.011Z,106.70
2018-12-16T09:47:45.943Z,120.53
2018-12-16T09:50:18.599Z,94.73
2018-12-16T09:52:51.313Z,126.17
2018-12-16T09:55:20.630Z,112.57
2018-12-16T09:57:50.732Z,123.00
2018-12-16T10:00:24.138Z,120.80
2018-12-16T10:02:55.457Z,105.47
2018-12-16T10:05:28.514Z,95.33
2018-12-16T10:07:57.797Z,106.63
2018-12-16T10:13:07.826Z,100.67
2018-12-16T10:15:43.080Z,79.83
2018-12-16T10:18:13.048Z,100.93
2018-12-16T10:20:41.928Z,119.33
2018-12-16T10:23:11.246Z,93.00
2018-12-16T10:25:44.020Z,88.67
2018-12-16T10:28:13.940Z,82.07
2018-12-16T10:30:43.265Z,101.50
2018-12-16T10:33:13.009Z,93.53
2018-12-16T10:35:43.573Z,83.67
2018-12-16T10:38:12.732Z,101.90
2018-12-16T10:40:42.964Z,96.70
2018-12-16T10:43:13.836Z,93.27
2018-12-16T10:45:42.810Z,79.67
2018-12-16T10:48:13.235Z,90.67
2018-12-16T10:50:42.473Z,128.03
2018-12-16T10:53:11.390Z,83.47
2018-12-16T10:55:42.287Z,73.23
2018-12-16T10:58:11.091Z,89.67
2018-12-16T11:00:45.508Z,86.17
2018-12-16T11:03:14.342Z,101.57
2018-12-16T11:05:43.404Z,77.37
2018-12-16T11:08:12.254Z,83.80
2018-12-16T11:10:41.057Z,89.13
2018-12-16T11:13:10.269Z,113.27
2018-12-16T11:15:39.216Z,109.00
2018-12-16T11:18:11.133Z,103.90
2018-12-16T11:20:39.957Z,90.70
2018-12-16T11:23:08.789Z,108.90
2018-12-16T11:25:41.138Z,61.93
2018-12-16T11:28:09.937Z,81.17
2018-12-16T11:30:38.772Z,76.40
2018-12-16T11:33:07.616Z,85.93
2018-12-16T11:35:36.480Z,90.43
2018-12-16T11:38:05.456Z,74.50
2018-12-16T11:40:34.339Z,78.83
2018-12-16T11:43:03.285Z,120.03
2018-12-16T11:45:32.501Z,87.97
2018-12-16T11:48:01.365Z,93.77
2018-12-16T11:50:33.334Z,82.47
2018-12-16T11:53:02.180Z,74.97
2018-12-16T11:55:31.110Z,67.47
2018-12-16T11:58:00.003Z,77.20
2018-12-16T12:00:28.841Z,60.03
2018-12-16T12:02:57.987Z,75.17
2018-12-16T12:05:28.761Z,92.93
2018-12-16T12:07:57.620Z,104.60
2018-12-16T12:10:27.241Z,94.97
2018-12-16T12:12:56.112Z,70.07
2018-12-16T12:15:24.954Z,71.17
2018-12-16T12:17:59.728Z,68.20
2018-12-16T12:20:34.722Z,85.73
2018-12-16T12:23:03.679Z,54.10
2018-12-16T12:25:37.030Z,56.20
2018-12-16T12:28:07.630Z,94.77
2018-12-16T12:30:36.394Z,80.67
2018-12-16T12:33:15.946Z,69.67
2018-12-16T12:35:44.794Z,80.43
2018-12-16T12:38:13.594Z,55.80
2018-12-16T12:40:43.193Z,76.53
2018-12-16T12:43:12.599Z,68.30
2018-12-16T12:45:41.690Z,58.77
2018-12-16T12:48:10.743Z,59.17
2018-12-16T12:50:40.305Z,70.80
2018-12-16T12:53:13.315Z,75.37
2018-12-16T12:55:42.474Z,78.23
2018-12-16T12:58:12.604Z,56.70
2018-12-16T13:00:42.546Z,78.17
2018-12-16T13:03:14.620Z,65.87
2018-12-16T13:05:47.768Z,82.40
2018-12-16T13:08:19.216Z,53.77
2018-12-16T13:13:25.981Z,79.63
2018-12-16T13:15:58.593Z,65.23
2018-12-16T13:18:28.035Z,80.17
2018-12-16T13:20:58.129Z,77.50
2018-12-16T13:23:32.478Z,83.87
2018-12-16T13:26:05.201Z,56.57
2018-12-16T13:28:33.955Z,60.63
2018-12-16T13:31:02.794Z,77.03
2018-12-16T13:33:31.581Z,69.03
2018-12-16T13:36:00.377Z,72.80
2018-12-16T13:38:29.150Z,80.60
2018-12-16T13:40:58.005Z,65.63
2018-12-16T13:43:26.820Z,89.50
2018-12-16T13:45:55.927Z,64.70
2018-12-16T13:48:28.916Z,69.57
2018-12-16T13:51:00.570Z,72.77
2018-12-16T13:53:31.811Z,73.33
2018-12-16T13:56:02.562Z,70.80
2018-12-16T13:58:32.948Z,69.93
2018-12-16T14:01:07.322Z,49.27
2018-12-16T14:03:39.917Z,63.90
2018-12-16T14:06:09.293Z,53.07
2018-12-16T14:08:44.890Z,82.87
2018-12-16T14:13:56.527Z,76.20
2018-12-16T14:16:28.370Z,74.70
2018-12-16T14:18:58.298Z,79.07
2018-12-16T14:21:28.041Z,57.27
2018-12-16T14:23:56.908Z,57.73
2018-12-16T14:26:28.389Z,76.03
2018-12-16T14:28:58.145Z,67.67
2018-12-16T14:31:28.948Z,77.23
2018-12-16T14:33:57.709Z,88.20
2018-12-16T14:36:26.477Z,79.57
2018-12-16T14:38:55.245Z,82.97
2018-12-16T14:41:24.032Z,72.57
2018-12-16T14:43:52.874Z,66.90
2018-12-16T14:46:21.651Z,89.43
2018-12-16T14:48:50.879Z,69.77
2018-12-16T14:51:20.725Z,89.43
2018-12-16T14:53:49.527Z,80.53
2018-12-16T14:56:18.285Z,106.00
2018-12-16T14:58:47.054Z,87.43
2018-12-16T15:01:15.833Z,96.73
2018-12-16T15:03:44.606Z,86.73
2018-12-16T15:06:13.541Z,71.27
2018-12-16T15:08:42.579Z,64.67
2018-12-16T15:11:11.421Z,78.40
2018-12-16T15:13:40.206Z,84.33
2018-12-16T15:16:10.232Z,75.63
2018-12-16T15:18:39.214Z,77.27
2018-12-16T15:21:07.973Z,88.33
2018-12-16T15:23:36.742Z,94.43
2018-12-16T15:26:05.848Z,80.57
2018-12-16T15:28:34.685Z,64.20
2018-12-16T15:31:03.592Z,91.00
2018-12-16T15:33:32.446Z,63.53
2018-12-16T15:36:01.234Z,66.03
2018-12-16T15:38:31.049Z,80.67
2018-12-16T15:41:00.377Z,77.33
2018-12-16T15:43:29.161Z,76.43
2018-12-16T15:45:57.963Z,69.77
2018-12-16T15:48:26.805Z,72.63
2018-12-16T15:50:55.571Z,82.80
2018-12-16T15:53:24.330Z,99.80
2018-12-16T15:55:53.185Z,70.47
2018-12-16T15:58:22.130Z,79.13
2018-12-16T16:00:56.655Z,90.53
2018-12-16T16:03:25.473Z,67.23
2018-12-16T16:05:54.559Z,71.80
2018-12-16T16:08:24.736Z,70.87
2018-12-16T16:10:53.569Z,62.27
2018-12-16T16:13:22.410Z,66.83
2018-12-16T16:15:51.244Z,63.27
2018-12-16T16:18:20.427Z,76.70
2018-12-16T16:20:57.505Z,60.20
2018-12-16T16:23:26.397Z,62.77
2018-12-16T16:25:57.240Z,72.90
2018-12-16T16:28:34.729Z,86.60
2018-12-16T16:31:06.624Z,71.87
2018-12-16T16:33:36.973Z,58.83
2018-12-16T16:36:09.219Z,71.97
2018-12-16T16:38:49.038Z,63.23
2018-12-16T16:41:20.490Z,63.03
2018-12-16T16:43:50.197Z,74.30
2018-12-16T16:46:20.286Z,71.10
2018-12-16T16:48:49.396Z,79.57
2018-12-16T16:51:18.234Z,61.13
2018-12-16T16:53:47.078Z,55.93
2018-12-16T16:56:22.903Z,66.57
2018-12-16T16:58:47.349Z,71.60
2018-12-16T17:01:16.181Z,57.40
2018-12-16T17:03:45.030Z,84.97
2018-12-16T17:06:13.800Z,63.47
2018-12-16T17:08:42.849Z,74.03
2018-12-16T17:11:12.025Z,70.10
2018-12-16T17:16:22.829Z,64.13
2018-12-16T17:18:52.318Z,75.30
2018-12-16T17:21:21.083Z,82.57
2018-12-16T17:23:49.883Z,66.33
2018-12-16T17:26:18.649Z,76.20
2018-12-16T17:28:47.454Z,73.57
2018-12-16T17:31:16.856Z,85.67
2018-12-16T17:33:45.694Z,64.23
2018-12-16T17:36:14.805Z,61.50
2018-12-16T17:38:45.357Z,103.37
2018-12-16T17:41:14.832Z,77.60
2018-12-16T17:43:43.670Z,95.27
2018-12-16T17:46:13.175Z,116.57
2018-12-16T17:48:42.299Z,91.70
2018-12-16T17:51:11.147Z,90.70
2018-12-16T17:53:39.989Z,72.33
2018-12-16T17:56:08.956Z,96.23
2018-12-16T17:58:39.647Z,71.83
2018-12-16T18:01:08.853Z,98.13
2018-12-16T18:03:37.752Z,69.67
2018-12-16T18:06:06.969Z,78.37
2018-12-16T18:08:35.823Z,87.40
2018-12-16T18:11:04.941Z,92.07
2018-12-16T18:13:34.016Z,98.67
2018-12-16T18:16:02.963Z,87.30
2018-12-16T18:18:32.288Z,79.50
2018-12-16T18:21:01.205Z,105.53
2018-12-16T18:23:30.051Z,120.57
2018-12-16T18:25:59.153Z,85.37
2018-12-16T18:28:27.988Z,90.20
2018-12-16T18:30:56.929Z,100.83
2018-12-16T18:33:25.925Z,86.97
2018-12-16T18:35:54.773Z,87.73
2018-12-16T18:38:23.638Z,86.30
2018-12-16T18:40:52.568Z,84.20
2018-12-16T18:43:21.770Z,90.03
2018-12-16T18:45:51.672Z,93.93
2018-12-16T18:48:21.383Z,99.17
2018-12-16T18:50:50.304Z,106.67
2018-12-16T18:53:19.290Z,87.13
2018-12-16T18:55:48.235Z,100.27
2018-12-16T18:58:17.082Z,86.60
2018-12-16T19:00:53.216Z,97.63
2018-12-16T19:03:23.720Z,91.30
2018-12-16T19:05:52.972Z,97.23
2018-12-16T19:08:22.832Z,94.90
2018-12-16T19:10:51.802Z,89.13
2018-12-16T19:13:21.844Z,103.77
2018-12-16T19:15:50.940Z,84.00
2018-12-16T19:18:22.036Z,91.90
2018-12-16T19:20:51.863Z,83.40
2018-12-16T19:23:22.686Z,89.13
2018-12-16T19:25:52.524Z,96.57
2018-12-16T19:28:21.525Z,70.67
2018-12-16T19:30:51.321Z,102.00
2018-12-16T19:33:21.509Z,92.20
2018-12-16T19:35:51.932Z,78.47
2018-12-16T19:38:20.774Z,77.63
2018-12-16T19:40:49.774Z,78.93
2018-12-16T19:43:18.645Z,90.93
2018-12-16T19:45:48.167Z,97.13
2018-12-16T19:48:17.846Z,93.10
2018-12-16T19:50:47.574Z,104.70
2018-12-16T19:53:16.483Z,101.83
2018-12-16T19:55:46.793Z,83.10
2018-12-16T19:58:15.642Z,84.63
2018-12-16T20:00:44.504Z,92.33
2018-12-16T20:03:13.391Z,77.53
2018-12-16T20:05:47.662Z,87.00
2018-12-16T20:08:16.605Z,99.07
2018-12-16T20:10:45.979Z,64.30
2018-12-16T20:13:16.440Z,89.77
2018-12-16T20:15:45.803Z,70.10
2018-12-16T20:18:15.720Z,79.77
2018-12-16T20:20:44.600Z,78.53
2018-12-16T20:23:15.065Z,83.83
2018-12-16T20:25:44.384Z,72.07
2018-12-16T20:28:13.516Z,68.13
2018-12-16T20:30:44.957Z,60.93
2018-12-16T20:33:16.975Z,72.00
2018-12-16T20:35:45.973Z,88.20
2018-12-16T20:38:15.654Z,84.70
2018-12-16T20:40:45.465Z,78.97
2018-12-16T20:43:15.908Z,69.97
2018-12-16T20:45:51.503Z,68.60
2018-12-16T20:48:26.056Z,70.97
2018-12-16T20:50:55.909Z,72.37
2018-12-16T20:53:25.769Z,68.97
2018-12-16T20:55:56.597Z,72.40
2018-12-16T20:58:26.380Z,74.40
2018-12-16T21:00:55.372Z,81.23
2018-12-16T21:03:26.468Z,84.43
2018-12-16T21:05:55.348Z,91.87
2018-12-16T21:08:25.940Z,99.60
2018-12-16T21:10:55.577Z,86.83
2018-12-16T21:13:30.009Z,100.30
2018-12-16T21:16:05.762Z,69.57
2018-12-16T21:18:35.728Z,65.67
2018-12-16T21:21:07.220Z,73.47
2018-12-16T21:23:37.725Z,68.50
2018-12-16T21:26:08.930Z,59.67
2018-12-16T21:28:39.860Z,62.17
2018-12-16T21:31:11.904Z,77.07
2018-12-16T21:33:41.119Z,67.37
2018-12-16T21:36:10.100Z,68.00
2018-12-16T21:38:39.834Z,70.93
2018-12-16T21:41:09.421Z,62.63
2018-12-16T21:43:38.488Z,61.13
2018-12-16T21:46:09.704Z,62.23
2018-12-16T21:48:39.009Z,74.83
2018-12-16T21:51:09.300Z,78.47
2018-12-16T21:53:38.517Z,67.87
2018-12-16T21:56:07.847Z,75.57
2018-12-16T21:58:36.741Z,87.90
2018-12-16T22:01:07.577Z,82.40
2018-12-16T22:03:40.710Z,86.83
2018-12-16T22:06:09.781Z,80.93
2018-12-16T22:08:38.693Z,81.33
2018-12-16T22:11:07.627Z,86.10
2018-12-16T22:13:37.045Z,94.83
2018-12-16T22:16:06.260Z,91.40
2018-12-16T22:18:35.862Z,89.73
2018-12-16T22:21:05.786Z,94.17
2018-12-16T22:23:34.672Z,94.27
2018-12-16T22:26:03.611Z,90.63
2018-12-16T22:28:32.416Z,86.97
2018-12-16T22:31:01.980Z,94.63
2018-12-16T22:33:30.826Z,87.07
2018-12-16T22:35:59.684Z,97.97
2018-12-16T22:38:28.554Z,88.33
2018-12-16T22:40:58.426Z,89.93
2018-12-16T22:43:27.295Z,89.03
2018-12-16T22:45:56.466Z,82.87
2018-12-16T22:48:25.309Z,72.60
2018-12-16T22:50:54.164Z,71.07
2018-12-16T22:53:29.574Z,77.97
2018-12-16T22:55:58.406Z,79.10
2018-12-16T22:58:27.644Z,58.00
2018-12-16T23:01:02.651Z,62.67
2018-12-16T23:03:33.918Z,65.13
2018-12-16T23:06:02.840Z,62.57
2018-12-16T23:08:31.770Z,65.03
2018-12-16T23:11:00.600Z,78.23
2018-12-16T23:13:29.859Z,75.83
2018-12-16T23:15:58.677Z,73.87
2018-12-16T23:18:28.259Z,55.33
2018-12-16T23:20:57.164Z,69.13
2018-12-16T23:23:26.021Z,55.77
2018-12-16T23:25:54.906Z,64.27
2018-12-16T23:28:23.757Z,56.80
2018-12-16T23:30:52.617Z,69.57
2018-12-16T23:33:21.457Z,67.33
2018-12-16T23:35:50.378Z,79.47
2018-12-16T23:38:19.801Z,75.67
2018-12-16T23:40:48.628Z,74.47
2018-12-16T23:43:19.195Z,74.17
2018-12-16T23:45:48.698Z,59.77
2018-12-16T23:48:18.893Z,59.47
2018-12-16T23:50:49.534Z,63.17
2018-12-16T23:53:18.358Z,78.50
2018-12-16T23:55:48.126Z,56.27
2018-12-16T23:58:16.983Z,60.40
